Terminal Aerodrome Forecast
Issued by NWS Mt. Holly, NJ

Current Version | Previous Version | Text Only | Print | Product List | Glossary On
Versions: 1 2 3 4 5 6 7 8 9 10 11 12 13 14 15 16 17 18 19 20 21 22 23
000
FTUS41 KPHI 311700
TAFPHL
TAF
KPHL 311737Z 3118/0124 01009KT P6SM OVC040
     FM010400 03013KT P6SM -RA OVC025
     FM011000 03013G21KT 5SM -RA OVC015
     FM011800 01015G25KT 6SM -RA OVC025
     FM012100 36014G24KT P6SM BKN035=

USA.gov is the U.S. government's official web portal to all federal, state and local government web resources and services.